createdAt,value
2018-03-22T00:02:49.903Z,1029
2018-03-22T00:07:49.996Z,1028.9
2018-03-22T00:12:49.919Z,1028.9
2018-03-22T00:17:49.954Z,1029
2018-03-22T00:22:50.012Z,1029
2018-03-22T00:27:49.811Z,1029
2018-03-22T00:32:52.961Z,1028.8
2018-03-22T00:37:49.975Z,1028.8
2018-03-22T00:42:50.015Z,1028.8
2018-03-22T00:47:49.940Z,1028.7
2018-03-22T00:52:49.995Z,1028.7
2018-03-22T00:57:49.806Z,1028.7
2018-03-22T01:02:49.929Z,1028.6
2018-03-22T01:07:49.814Z,1028.6
2018-03-22T01:12:49.827Z,1028.6
2018-03-22T01:17:50.054Z,1028.5
2018-03-22T01:22:49.963Z,1028.4
2018-03-22T01:27:49.824Z,1028.3
2018-03-22T01:32:50.160Z,1028.3
2018-03-22T01:37:50.242Z,1028.3
2018-03-22T01:42:50.005Z,1028.2
2018-03-22T01:47:50.189Z,1028.2
2018-03-22T01:52:50.133Z,1028.2
2018-03-22T01:57:50.021Z,1028.2
2018-03-22T02:02:55.725Z,1028
2018-03-22T02:08:05.732Z,1028
2018-03-22T02:12:55.465Z,1028
2018-03-22T02:17:55.612Z,1027.8
2018-03-22T02:22:55.472Z,1027.8
2018-03-22T02:32:55.482Z,1027.8
2018-03-22T02:37:55.606Z,1027.8
2018-03-22T02:42:55.644Z,1027.7
2018-03-22T02:47:55.664Z,1027.7
2018-03-22T02:52:55.577Z,1027.7
2018-03-22T02:57:55.495Z,1027.6
2018-03-22T03:02:55.719Z,1027.7
2018-03-22T03:07:55.469Z,1027.5
2018-03-22T03:12:55.646Z,1027.6
2018-03-22T03:17:55.499Z,1027.5
2018-03-22T03:22:55.631Z,1027.4
2018-03-22T03:27:55.517Z,1027.4
2018-03-22T03:32:55.638Z,1027.4
2018-03-22T03:37:55.632Z,1027.3
2018-03-22T03:42:55.653Z,1027.2
2018-03-22T03:47:55.600Z,1027.2
2018-03-22T03:52:55.845Z,1027.2
2018-03-22T03:57:55.593Z,1027.1
2018-03-22T04:02:55.641Z,1027.1
2018-03-22T04:07:55.654Z,1027.1
2018-03-22T04:12:55.736Z,1027
2018-03-22T04:17:55.665Z,1027
2018-03-22T04:22:55.704Z,1026.9
2018-03-22T04:27:55.547Z,1026.9
2018-03-22T04:33:02.743Z,1027
2018-03-22T04:38:12.901Z,1026.9
2018-03-22T04:43:02.579Z,1026.9
2018-03-22T04:48:02.814Z,1026.9
2018-03-22T04:53:02.579Z,1026.9
2018-03-22T04:58:02.593Z,1026.8
2018-03-22T05:03:02.686Z,1026.8
2018-03-22T05:08:02.674Z,1026.8
2018-03-22T05:13:02.609Z,1026.7
2018-03-22T05:18:02.467Z,1026.7
2018-03-22T05:23:02.590Z,1026.7
2018-03-22T05:28:02.599Z,1026.6
2018-03-22T05:33:02.633Z,1026.6
2018-03-22T05:38:02.470Z,1026.5
2018-03-22T05:43:02.489Z,1026.3
2018-03-22T05:48:02.470Z,1026.3
2018-03-22T05:53:02.647Z,1026.3
2018-03-22T05:58:02.700Z,1026.2
2018-03-22T06:03:02.663Z,1026.2
2018-03-22T06:08:02.662Z,1026.1
2018-03-22T06:13:02.998Z,1025.9
2018-03-22T06:18:02.877Z,1025.8
2018-03-22T06:23:03.272Z,1025.7
2018-03-22T06:28:03.195Z,1025.6
2018-03-22T06:33:03.253Z,1025.5
2018-03-22T06:38:03.286Z,1025.5
2018-03-22T06:43:03.198Z,1025.3
2018-03-22T06:48:03.248Z,1025.3
2018-03-22T06:53:03.282Z,1025.2
2018-03-22T06:58:03.047Z,1025.1
2018-03-22T07:03:04.172Z,1025.1
2018-03-22T07:08:14.307Z,1025.1
2018-03-22T07:13:04.013Z,1024.9
2018-03-22T07:18:04.044Z,1024.9
2018-03-22T07:23:04.017Z,1024.8
2018-03-22T07:28:03.863Z,1024.7
2018-03-22T07:33:04.013Z,1024.6
2018-03-22T07:38:03.905Z,1024.5
2018-03-22T07:43:04.002Z,1024.5
2018-03-22T07:48:03.914Z,1024.5
2018-03-22T07:53:04.015Z,1024.3
2018-03-22T07:58:03.924Z,1024.2
2018-03-22T08:03:04.263Z,1024
2018-03-22T08:08:04.298Z,1024
2018-03-22T08:13:04.228Z,1023.9
2018-03-22T08:18:04.660Z,1023.6
2018-03-22T08:23:04.924Z,1023.6
2018-03-22T08:28:04.903Z,1023.6
2018-03-22T08:33:05.303Z,1023.5
2018-03-22T08:38:05.524Z,1023.3
2018-03-22T08:43:05.517Z,1023.3
2018-03-22T08:48:05.801Z,1023.1
2018-03-22T08:53:06.065Z,1023.1
2018-03-22T08:58:06.063Z,1023.2
2018-03-22T09:03:06.191Z,1023.1
2018-03-22T09:08:06.411Z,1023
2018-03-22T09:13:06.561Z,1022.9
2018-03-22T09:18:06.898Z,1022.5
2018-03-22T09:23:07.064Z,1022.6
2018-03-22T09:28:07.302Z,1022.5
2018-03-22T09:33:07.310Z,1022.3
2018-03-22T09:38:17.825Z,1022.4
2018-03-22T09:43:27.839Z,1022.2
2018-03-22T09:48:17.573Z,1022.2
2018-03-22T09:53:17.534Z,1022.1
2018-03-22T09:58:17.551Z,1022.1
2018-03-22T10:03:17.581Z,1022.1
2018-03-22T10:08:17.573Z,1021.9
2018-03-22T10:13:17.573Z,1021.8
2018-03-22T10:18:17.776Z,1021.6
2018-03-22T10:23:17.803Z,1021.6
2018-03-22T10:28:17.737Z,1021.4
2018-03-22T10:33:17.591Z,1021.3
2018-03-22T10:38:17.823Z,1021.1
2018-03-22T10:43:17.713Z,1021
2018-03-22T10:48:17.820Z,1020.8
2018-03-22T10:53:17.800Z,1020.8
2018-03-22T10:58:17.856Z,1020.6
2018-03-22T11:03:17.874Z,1020.5
2018-03-22T11:08:17.824Z,1020.6
2018-03-22T11:13:18.231Z,1020.5
2018-03-22T11:18:18.049Z,1020.2
2018-03-22T11:23:18.393Z,1020.2
2018-03-22T11:28:18.582Z,1019.8
2018-03-22T11:33:18.177Z,1019.7
2018-03-22T11:38:18.354Z,1019.7
2018-03-22T11:43:18.313Z,1019.3
2018-03-22T11:48:18.358Z,1019.4
2018-03-22T11:53:18.415Z,1019.3
2018-03-22T11:58:18.348Z,1019.2
2018-03-22T12:03:18.398Z,1019
2018-03-22T12:08:19.801Z,1018.9
2018-03-22T12:13:30.340Z,1018.8
2018-03-22T12:18:20.028Z,1018.8
2018-03-22T12:23:19.925Z,1018.7
2018-03-22T12:28:19.989Z,1018.5
2018-03-22T12:33:20.042Z,1018.3
2018-03-22T12:38:19.809Z,1018.4
2018-03-22T12:43:20.359Z,1018.1
2018-03-22T12:48:19.826Z,1018.1
2018-03-22T12:53:20.056Z,1018
2018-03-22T12:58:19.952Z,1018.1
2018-03-22T13:03:20.004Z,1018
2018-03-22T13:08:19.913Z,1017.8
2018-03-22T13:13:20.218Z,1017.7
2018-03-22T13:18:20.338Z,1017.7
2018-03-22T13:23:20.543Z,1017.5
2018-03-22T13:28:20.611Z,1017.4
2018-03-22T13:33:20.859Z,1017.2
2018-03-22T13:38:20.884Z,1017.1
2018-03-22T13:43:21.480Z,1017.3
2018-03-22T13:48:21.199Z,1017.2
2018-03-22T13:53:21.170Z,1017.1
2018-03-22T13:58:21.519Z,1017.1
2018-03-22T14:03:21.782Z,1017
2018-03-22T14:08:21.775Z,1016.9
2018-03-22T14:13:21.824Z,1016.7
2018-03-22T14:18:22.272Z,1016.6
2018-03-22T14:23:22.327Z,1016.6
2018-03-22T14:28:22.644Z,1016.5
2018-03-22T14:33:22.862Z,1016.5
2018-03-22T14:38:24.046Z,1016.4
2018-03-22T14:43:34.428Z,1016.3
2018-03-22T14:48:44.481Z,1016.2
2018-03-22T14:53:34.231Z,1016.2
2018-03-22T14:58:34.408Z,1016.1
2018-03-22T15:03:34.461Z,1016
2018-03-22T15:08:34.777Z,1015.9
2018-03-22T15:13:34.848Z,1016
2018-03-22T15:18:35.042Z,1015.8
2018-03-22T15:23:35.082Z,1016
2018-03-22T15:28:35.318Z,1015.8
2018-03-22T15:33:35.663Z,1015.8
2018-03-22T15:38:35.720Z,1015.9
2018-03-22T15:43:35.755Z,1015.9
2018-03-22T15:48:36.079Z,1015.9
2018-03-22T15:53:35.734Z,1016
2018-03-22T15:58:35.728Z,1015.9
2018-03-22T16:03:37.206Z,1015.8
2018-03-22T16:08:35.855Z,1015.8
2018-03-22T16:13:36.240Z,1015.8
2018-03-22T16:23:27.932Z,1015.9
2018-03-22T16:37:47.844Z,1015.7
2018-03-22T16:42:47.835Z,1015.7
2018-03-22T16:47:48.214Z,1015.7
2018-03-22T16:52:48.549Z,1015.7
2018-03-22T16:57:47.930Z,1015.8
2018-03-22T17:02:47.915Z,1015.7
2018-03-22T17:07:47.904Z,1015.7
2018-03-22T17:12:48.233Z,1015.7
2018-03-22T17:17:47.865Z,1015.9
2018-03-22T17:22:48.362Z,1015.8
2018-03-22T17:27:49.289Z,1015.8
2018-03-22T17:32:48.263Z,1015.8
2018-03-22T17:37:49.031Z,1015.8
2018-03-22T17:42:47.809Z,1015.8
2018-03-22T17:47:47.872Z,1015.8
2018-03-22T17:52:47.978Z,1015.8
2018-03-22T17:57:47.993Z,1015.7
2018-03-22T18:02:48.073Z,1015.8
2018-03-22T18:07:47.879Z,1015.9
2018-03-22T18:12:47.850Z,1015.9
2018-03-22T18:17:47.897Z,1015.9
2018-03-22T18:22:48.230Z,1015.9
2018-03-22T18:27:47.902Z,1015.9
2018-03-22T18:32:48.041Z,1016
2018-03-22T18:37:48.106Z,1015.9
2018-03-22T18:42:47.859Z,1016
2018-03-22T18:47:48.040Z,1016
2018-03-22T18:52:48.089Z,1015.9
2018-03-22T18:57:47.889Z,1015.9
2018-03-22T19:02:47.907Z,1015.9
2018-03-22T19:07:47.920Z,1015.9
2018-03-22T19:12:47.917Z,1015.9
2018-03-22T19:17:47.910Z,1015.9
2018-03-22T19:22:47.985Z,1015.9
2018-03-22T19:27:47.944Z,1015.9
2018-03-22T19:32:47.918Z,1016
2018-03-22T19:37:48.083Z,1016.1
2018-03-22T19:42:48.011Z,1016.1
2018-03-22T19:47:48.335Z,1016.1
2018-03-22T19:52:47.949Z,1016.1
2018-03-22T19:57:48.085Z,1016.2
2018-03-22T20:02:48.473Z,1016.1
2018-03-22T20:07:48.086Z,1016.1
2018-03-22T20:12:48.073Z,1016.1
2018-03-22T20:17:48.067Z,1016.2
2018-03-22T20:22:48.093Z,1016.2
2018-03-22T20:27:49.483Z,1016.3
2018-03-22T20:32:48.182Z,1016.3
2018-03-22T20:37:48.036Z,1016.3
2018-03-22T20:42:48.096Z,1016.3
2018-03-22T20:47:48.106Z,1016.4
2018-03-22T20:52:48.109Z,1016.3
2018-03-22T20:57:48.100Z,1016.3
2018-03-22T21:02:48.104Z,1016.3
2018-03-22T21:07:48.059Z,1016.5
2018-03-22T21:12:52.107Z,1016.4
2018-03-22T21:17:57.300Z,1016.4
2018-03-22T21:22:52.125Z,1016.4
2018-03-22T21:27:52.080Z,1016.4
2018-03-22T21:32:52.117Z,1016.3
2018-03-22T21:37:52.187Z,1016.3
2018-03-22T21:42:52.209Z,1016.3
2018-03-22T21:47:52.097Z,1016.4
2018-03-22T21:52:52.118Z,1016.3
2018-03-22T21:57:52.291Z,1016.3
2018-03-22T22:02:52.351Z,1016.4
2018-03-22T22:07:52.254Z,1016.2
2018-03-22T22:12:52.118Z,1016.2
2018-03-22T22:17:52.332Z,1016.2
2018-03-22T22:22:52.122Z,1016
2018-03-22T22:27:52.126Z,1015.9
2018-03-22T22:32:52.131Z,1016
2018-03-22T22:37:52.139Z,1015.9
2018-03-22T22:42:52.242Z,1015.7
2018-03-22T22:47:52.346Z,1015.6
2018-03-22T22:52:52.145Z,1015.6
2018-03-22T22:57:52.263Z,1015.5
2018-03-22T23:02:52.170Z,1015.4
2018-03-22T23:07:52.547Z,1015.3
2018-03-22T23:12:52.280Z,1015.2
2018-03-22T23:17:52.150Z,1015.1
2018-03-22T23:22:52.203Z,1015
2018-03-22T23:27:52.411Z,1014.9
2018-03-22T23:32:52.319Z,1014.9
2018-03-22T23:37:52.371Z,1014.9
2018-03-22T23:42:52.181Z,1014.9
2018-03-22T23:47:52.352Z,1014.8
2018-03-22T23:52:52.373Z,1014.8
2018-03-22T23:57:52.410Z,1014.7
